Jeddo, Michigan
Current Conditions -  °F | °C
As of 10:17 PM on Thursday 18 Dec 2014 (Local Time) from KPHN Reporting Station
Overcast Overcast  
Wind Chill: 17°   Ceiling: 2000
Heat Index: 27°   Visibility: 10mi
Dew Point: 23°   Wind: 9mph
Humidity: 86%   Direction: 300°WNW
Pressure: 30.18"   Gusts: NA
Location:  43.15°N, 82.58°W
Report Text: KPHN 190317Z AUTO 30008KT 10SM SCT015 OVC020 M03/M05 A3018 RMK AO2
Loading
Personal Weather Stations






























Interactive Weather Map New forecast layout! Learn more

10-Day Weather Forecast

Advertisements
Track Severe Weather on mobile